sensor_id;sensor_type;location;lat;lon;timestamp;P1;durP1;ratioP1;P2;durP2;ratioP2
79712;SDS011;69206;51.420;5.400;2023-07-29T00:00:35;6.25;;;4.57;;
79712;SDS011;69206;51.420;5.400;2023-07-29T00:03:01;5.72;;;4.40;;
79712;SDS011;69206;51.420;5.400;2023-07-29T00:05:26;6.22;;;4.18;;
79712;SDS011;69206;51.420;5.400;2023-07-29T00:07:51;6.95;;;4.35;;
79712;SDS011;69206;51.420;5.400;2023-07-29T00:10:17;6.00;;;4.30;;
79712;SDS011;69206;51.420;5.400;2023-07-29T00:12:42;5.45;;;3.45;;
79712;SDS011;69206;51.420;5.400;2023-07-29T00:15:08;6.65;;;4.10;;
79712;SDS011;69206;51.420;5.400;2023-07-29T00:17:33;6.07;;;4.43;;
79712;SDS011;69206;51.420;5.400;2023-07-29T00:19:59;5.68;;;4.30;;
79712;SDS011;69206;51.420;5.400;2023-07-29T00:22:25;6.35;;;4.35;;
79712;SDS011;69206;51.420;5.400;2023-07-29T00:24:54;6.10;;;4.13;;
79712;SDS011;69206;51.420;5.400;2023-07-29T00:27:20;6.43;;;4.50;;
79712;SDS011;69206;51.420;5.400;2023-07-29T00:29:46;8.23;;;4.70;;
79712;SDS011;69206;51.420;5.400;2023-07-29T00:32:12;6.68;;;4.40;;
79712;SDS011;69206;51.420;5.400;2023-07-29T00:34:37;6.57;;;4.78;;
79712;SDS011;69206;51.420;5.400;2023-07-29T00:37:02;5.78;;;4.55;;
79712;SDS011;69206;51.420;5.400;2023-07-29T00:39:28;8.30;;;5.05;;
79712;SDS011;69206;51.420;5.400;2023-07-29T00:41:53;7.03;;;4.85;;
79712;SDS011;69206;51.420;5.400;2023-07-29T00:44:19;6.72;;;4.40;;
79712;SDS011;69206;51.420;5.400;2023-07-29T00:46:45;8.43;;;4.82;;
79712;SDS011;69206;51.420;5.400;2023-07-29T00:49:11;8.07;;;5.43;;
79712;SDS011;69206;51.420;5.400;2023-07-29T00:51:37;8.40;;;5.35;;
79712;SDS011;69206;51.420;5.400;2023-07-29T00:54:02;6.35;;;5.05;;
79712;SDS011;69206;51.420;5.400;2023-07-29T00:56:27;11.45;;;5.25;;
79712;SDS011;69206;51.420;5.400;2023-07-29T00:58:53;11.65;;;5.28;;
79712;SDS011;69206;51.420;5.400;2023-07-29T01:01:24;8.10;;;5.10;;
79712;SDS011;69206;51.420;5.400;2023-07-29T01:03:49;9.27;;;5.50;;
79712;SDS011;69206;51.420;5.400;2023-07-29T01:06:18;12.73;;;5.90;;
79712;SDS011;69206;51.420;5.400;2023-07-29T01:09:01;11.88;;;5.57;;
79712;SDS011;69206;51.420;5.400;2023-07-29T01:16:59;9.32;;;5.10;;
79712;SDS011;69206;51.420;5.400;2023-07-29T01:22:14;6.45;;;5.25;;
79712;SDS011;69206;51.420;5.400;2023-07-29T01:24:41;15.57;;;5.68;;
79712;SDS011;69206;51.420;5.400;2023-07-29T01:27:06;7.75;;;5.80;;
79712;SDS011;69206;51.420;5.400;2023-07-29T01:29:32;8.30;;;5.60;;
79712;SDS011;69206;51.420;5.400;2023-07-29T01:31:59;9.68;;;5.30;;
79712;SDS011;69206;51.420;5.400;2023-07-29T01:34:30;7.43;;;5.70;;
79712;SDS011;69206;51.420;5.400;2023-07-29T01:37:04;10.15;;;6.35;;
79712;SDS011;69206;51.420;5.400;2023-07-29T01:39:34;9.85;;;5.75;;
79712;SDS011;69206;51.420;5.400;2023-07-29T01:42:02;9.15;;;5.80;;
79712;SDS011;69206;51.420;5.400;2023-07-29T01:44:28;8.07;;;5.90;;
79712;SDS011;69206;51.420;5.400;2023-07-29T01:46:55;8.52;;;6.40;;
79712;SDS011;69206;51.420;5.400;2023-07-29T01:49:22;10.82;;;6.22;;
79712;SDS011;69206;51.420;5.400;2023-07-29T01:51:47;9.15;;;6.55;;
79712;SDS011;69206;51.420;5.400;2023-07-29T01:54:12;12.00;;;6.28;;
79712;SDS011;69206;51.420;5.400;2023-07-29T01:56:37;8.23;;;6.05;;
79712;SDS011;69206;51.420;5.400;2023-07-29T01:59:03;15.85;;;6.60;;
79712;SDS011;69206;51.420;5.400;2023-07-29T02:01:28;13.07;;;6.82;;
79712;SDS011;69206;51.420;5.400;2023-07-29T02:03:53;12.60;;;6.78;;
79712;SDS011;69206;51.420;5.400;2023-07-29T02:06:20;8.65;;;6.30;;
79712;SDS011;69206;51.420;5.400;2023-07-29T02:08:46;8.00;;;6.10;;
79712;SDS011;69206;51.420;5.400;2023-07-29T02:11:11;8.18;;;6.18;;
79712;SDS011;69206;51.420;5.400;2023-07-29T02:13:37;10.55;;;6.53;;
79712;SDS011;69206;51.420;5.400;2023-07-29T02:16:02;11.13;;;6.50;;
79712;SDS011;69206;51.420;5.400;2023-07-29T02:18:28;10.50;;;6.07;;
79712;SDS011;69206;51.420;5.400;2023-07-29T02:20:53;11.55;;;5.90;;
79712;SDS011;69206;51.420;5.400;2023-07-29T02:23:18;14.98;;;6.00;;
79712;SDS011;69206;51.420;5.400;2023-07-29T02:25:44;8.65;;;5.78;;
79712;SDS011;69206;51.420;5.400;2023-07-29T02:28:09;12.70;;;6.30;;
79712;SDS011;69206;51.420;5.400;2023-07-29T02:30:34;10.90;;;5.40;;
79712;SDS011;69206;51.420;5.400;2023-07-29T02:32:59;12.77;;;6.72;;
79712;SDS011;69206;51.420;5.400;2023-07-29T02:35:26;9.68;;;6.18;;
79712;SDS011;69206;51.420;5.400;2023-07-29T02:37:52;8.57;;;5.75;;
79712;SDS011;69206;51.420;5.400;2023-07-29T02:40:17;8.32;;;6.07;;
79712;SDS011;69206;51.420;5.400;2023-07-29T02:42:42;9.65;;;5.50;;
79712;SDS011;69206;51.420;5.400;2023-07-29T02:45:08;12.18;;;6.03;;
79712;SDS011;69206;51.420;5.400;2023-07-29T02:47:35;10.48;;;5.97;;
79712;SDS011;69206;51.420;5.400;2023-07-29T02:50:02;9.98;;;5.68;;
79712;SDS011;69206;51.420;5.400;2023-07-29T02:52:27;12.02;;;5.88;;
79712;SDS011;69206;51.420;5.400;2023-07-29T02:54:52;9.93;;;5.47;;
79712;SDS011;69206;51.420;5.400;2023-07-29T02:57:18;11.93;;;5.30;;
79712;SDS011;69206;51.420;5.400;2023-07-29T02:59:43;9.27;;;5.30;;
79712;SDS011;69206;51.420;5.400;2023-07-29T03:02:08;11.10;;;5.38;;
79712;SDS011;69206;51.420;5.400;2023-07-29T03:04:34;9.40;;;5.30;;
79712;SDS011;69206;51.420;5.400;2023-07-29T03:06:59;10.85;;;5.78;;
79712;SDS011;69206;51.420;5.400;2023-07-29T03:09:25;9.50;;;5.50;;
79712;SDS011;69206;51.420;5.400;2023-07-29T03:11:53;7.75;;;4.78;;
79712;SDS011;69206;51.420;5.400;2023-07-29T03:14:19;17.63;;;5.47;;
79712;SDS011;69206;51.420;5.400;2023-07-29T03:16:45;13.15;;;5.00;;
79712;SDS011;69206;51.420;5.400;2023-07-29T03:19:11;7.45;;;4.53;;
79712;SDS011;69206;51.420;5.400;2023-07-29T03:21:37;9.20;;;5.05;;
79712;SDS011;69206;51.420;5.400;2023-07-29T03:24:02;9.45;;;5.05;;
79712;SDS011;69206;51.420;5.400;2023-07-29T03:26:28;9.27;;;5.38;;
79712;SDS011;69206;51.420;5.400;2023-07-29T03:28:53;6.60;;;4.68;;
79712;SDS011;69206;51.420;5.400;2023-07-29T03:31:18;7.97;;;4.78;;
79712;SDS011;69206;51.420;5.400;2023-07-29T03:33:44;6.38;;;4.70;;
79712;SDS011;69206;51.420;5.400;2023-07-29T03:36:09;17.52;;;5.10;;
79712;SDS011;69206;51.420;5.400;2023-07-29T03:38:34;13.98;;;4.10;;
79712;SDS011;69206;51.420;5.400;2023-07-29T03:41:00;10.80;;;4.22;;
79712;SDS011;69206;51.420;5.400;2023-07-29T03:43:28;5.20;;;4.07;;
79712;SDS011;69206;51.420;5.400;2023-07-29T03:45:54;8.45;;;4.13;;
79712;SDS011;69206;51.420;5.400;2023-07-29T03:48:20;8.57;;;4.57;;
79712;SDS011;69206;51.420;5.400;2023-07-29T03:50:45;7.55;;;3.90;;
79712;SDS011;69206;51.420;5.400;2023-07-29T03:53:11;7.13;;;4.78;;
79712;SDS011;69206;51.420;5.400;2023-07-29T03:55:36;5.60;;;3.67;;
79712;SDS011;69206;51.420;5.400;2023-07-29T03:58:01;6.80;;;3.97;;
79712;SDS011;69206;51.420;5.400;2023-07-29T04:00:28;7.18;;;3.72;;
79712;SDS011;69206;51.420;5.400;2023-07-29T04:02:53;4.72;;;3.83;;
79712;SDS011;69206;51.420;5.400;2023-07-29T04:05:19;6.90;;;3.67;;
79712;SDS011;69206;51.420;5.400;2023-07-29T04:07:44;8.10;;;3.90;;
79712;SDS011;69206;51.420;5.400;2023-07-29T04:10:10;7.28;;;3.70;;
79712;SDS011;69206;51.420;5.400;2023-07-29T04:12:36;6.88;;;3.28;;
79712;SDS011;69206;51.420;5.400;2023-07-29T04:15:02;5.50;;;3.20;;
79712;SDS011;69206;51.420;5.400;2023-07-29T04:17:27;4.80;;;3.42;;
79712;SDS011;69206;51.420;5.400;2023-07-29T04:19:54;7.40;;;3.08;;
79712;SDS011;69206;51.420;5.400;2023-07-29T04:22:19;4.10;;;2.85;;
79712;SDS011;69206;51.420;5.400;2023-07-29T04:24:44;5.65;;;3.22;;
79712;SDS011;69206;51.420;5.400;2023-07-29T04:27:10;5.50;;;3.80;;
79712;SDS011;69206;51.420;5.400;2023-07-29T04:29:36;5.28;;;3.33;;
79712;SDS011;69206;51.420;5.400;2023-07-29T04:32:02;5.32;;;3.13;;
79712;SDS011;69206;51.420;5.400;2023-07-29T04:34:28;6.05;;;3.15;;
79712;SDS011;69206;51.420;5.400;2023-07-29T04:36:53;3.80;;;2.72;;
79712;SDS011;69206;51.420;5.400;2023-07-29T04:39:18;3.92;;;3.08;;
79712;SDS011;69206;51.420;5.400;2023-07-29T04:41:43;4.20;;;2.70;;
79712;SDS011;69206;51.420;5.400;2023-07-29T04:44:09;8.38;;;3.15;;
79712;SDS011;69206;51.420;5.400;2023-07-29T04:46:35;10.48;;;3.10;;
79712;SDS011;69206;51.420;5.400;2023-07-29T04:49:01;4.88;;;2.55;;
79712;SDS011;69206;51.420;5.400;2023-07-29T04:51:28;6.53;;;2.83;;
79712;SDS011;69206;51.420;5.400;2023-07-29T04:53:53;4.80;;;3.10;;
79712;SDS011;69206;51.420;5.400;2023-07-29T04:56:19;5.53;;;2.97;;
79712;SDS011;69206;51.420;5.400;2023-07-29T04:58:44;6.80;;;2.47;;
79712;SDS011;69206;51.420;5.400;2023-07-29T05:01:10;4.45;;;2.60;;
79712;SDS011;69206;51.420;5.400;2023-07-29T05:03:36;6.55;;;2.78;;
79712;SDS011;69206;51.420;5.400;2023-07-29T05:06:02;5.45;;;2.75;;
79712;SDS011;69206;51.420;5.400;2023-07-29T05:08:27;5.05;;;2.65;;
79712;SDS011;69206;51.420;5.400;2023-07-29T05:10:53;5.22;;;2.72;;
79712;SDS011;69206;51.420;5.400;2023-07-29T05:13:19;6.90;;;3.17;;
79712;SDS011;69206;51.420;5.400;2023-07-29T05:15:48;3.50;;;2.50;;
79712;SDS011;69206;51.420;5.400;2023-07-29T05:18:14;5.82;;;2.50;;
79712;SDS011;69206;51.420;5.400;2023-07-29T05:20:39;5.70;;;2.85;;
79712;SDS011;69206;51.420;5.400;2023-07-29T05:23:05;3.42;;;2.50;;
79712;SDS011;69206;51.420;5.400;2023-07-29T05:25:30;4.25;;;2.60;;
79712;SDS011;69206;51.420;5.400;2023-07-29T05:27:55;3.05;;;2.42;;
79712;SDS011;69206;51.420;5.400;2023-07-29T05:30:22;5.05;;;2.60;;
79712;SDS011;69206;51.420;5.400;2023-07-29T05:32:47;3.92;;;2.13;;
79712;SDS011;69206;51.420;5.400;2023-07-29T05:35:13;5.95;;;2.55;;
79712;SDS011;69206;51.420;5.400;2023-07-29T05:37:39;2.97;;;2.22;;
79712;SDS011;69206;51.420;5.400;2023-07-29T05:40:05;5.13;;;2.13;;
79712;SDS011;69206;51.420;5.400;2023-07-29T05:42:32;3.08;;;2.42;;
79712;SDS011;69206;51.420;5.400;2023-07-29T05:44:58;2.90;;;1.92;;
79712;SDS011;69206;51.420;5.400;2023-07-29T05:47:23;2.88;;;2.10;;
79712;SDS011;69206;51.420;5.400;2023-07-29T05:49:48;4.07;;;2.75;;
79712;SDS011;69206;51.420;5.400;2023-07-29T05:52:14;4.82;;;2.10;;
79712;SDS011;69206;51.420;5.400;2023-07-29T05:54:39;5.18;;;2.15;;
79712;SDS011;69206;51.420;5.400;2023-07-29T05:57:06;6.05;;;2.60;;
79712;SDS011;69206;51.420;5.400;2023-07-29T05:59:31;6.90;;;2.20;;
79712;SDS011;69206;51.420;5.400;2023-07-29T06:01:57;5.10;;;2.60;;
79712;SDS011;69206;51.420;5.400;2023-07-29T06:04:24;5.18;;;2.30;;
79712;SDS011;69206;51.420;5.400;2023-07-29T06:06:49;3.28;;;2.30;;
79712;SDS011;69206;51.420;5.400;2023-07-29T06:09:14;4.25;;;2.05;;
79712;SDS011;69206;51.420;5.400;2023-07-29T06:11:40;2.38;;;1.70;;
79712;SDS011;69206;51.420;5.400;2023-07-29T06:14:05;4.22;;;2.20;;
79712;SDS011;69206;51.420;5.400;2023-07-29T06:16:30;4.75;;;1.95;;
79712;SDS011;69206;51.420;5.400;2023-07-29T06:18:56;4.97;;;2.15;;
79712;SDS011;69206;51.420;5.400;2023-07-29T06:21:22;3.35;;;2.10;;
79712;SDS011;69206;51.420;5.400;2023-07-29T06:23:47;2.60;;;1.80;;
79712;SDS011;69206;51.420;5.400;2023-07-29T06:26:12;6.05;;;2.63;;
79712;SDS011;69206;51.420;5.400;2023-07-29T06:28:38;2.63;;;1.73;;
79712;SDS011;69206;51.420;5.400;2023-07-29T06:31:03;4.55;;;2.65;;
79712;SDS011;69206;51.420;5.400;2023-07-29T06:33:28;3.17;;;2.10;;
79712;SDS011;69206;51.420;5.400;2023-07-29T06:35:54;7.60;;;3.03;;
79712;SDS011;69206;51.420;5.400;2023-07-29T06:38:19;3.38;;;2.30;;
79712;SDS011;69206;51.420;5.400;2023-07-29T06:40:49;3.45;;;2.17;;
79712;SDS011;69206;51.420;5.400;2023-07-29T06:43:14;3.35;;;2.05;;
79712;SDS011;69206;51.420;5.400;2023-07-29T06:45:40;3.00;;;2.30;;
79712;SDS011;69206;51.420;5.400;2023-07-29T06:48:05;3.55;;;2.47;;
79712;SDS011;69206;51.420;5.400;2023-07-29T06:50:31;5.53;;;2.33;;
79712;SDS011;69206;51.420;5.400;2023-07-29T06:52:56;3.90;;;2.15;;
79712;SDS011;69206;51.420;5.400;2023-07-29T06:55:21;4.25;;;2.47;;
79712;SDS011;69206;51.420;5.400;2023-07-29T06:57:47;5.45;;;2.40;;
79712;SDS011;69206;51.420;5.400;2023-07-29T07:00:12;3.60;;;2.22;;
79712;SDS011;69206;51.420;5.400;2023-07-29T07:02:37;6.88;;;2.00;;
79712;SDS011;69206;51.420;5.400;2023-07-29T07:05:03;3.13;;;2.05;;
79712;SDS011;69206;51.420;5.400;2023-07-29T07:07:28;5.15;;;2.00;;
79712;SDS011;69206;51.420;5.400;2023-07-29T07:09:54;5.10;;;2.42;;
79712;SDS011;69206;51.420;5.400;2023-07-29T07:12:19;3.53;;;2.10;;
79712;SDS011;69206;51.420;5.400;2023-07-29T07:14:44;5.88;;;2.08;;
79712;SDS011;69206;51.420;5.400;2023-07-29T07:17:10;8.50;;;2.75;;
79712;SDS011;69206;51.420;5.400;2023-07-29T07:19:36;5.15;;;2.33;;
79712;SDS011;69206;51.420;5.400;2023-07-29T07:22:02;5.20;;;2.17;;
79712;SDS011;69206;51.420;5.400;2023-07-29T07:24:27;2.97;;;1.88;;
79712;SDS011;69206;51.420;5.400;2023-07-29T07:26:56;2.08;;;1.50;;
79712;SDS011;69206;51.420;5.400;2023-07-29T07:29:21;2.70;;;1.77;;
79712;SDS011;69206;51.420;5.400;2023-07-29T07:31:51;1.85;;;1.60;;
79712;SDS011;69206;51.420;5.400;2023-07-29T07:34:18;3.58;;;1.63;;
79712;SDS011;69206;51.420;5.400;2023-07-29T07:36:44;2.70;;;1.38;;
79712;SDS011;69206;51.420;5.400;2023-07-29T07:39:09;6.45;;;1.55;;
79712;SDS011;69206;51.420;5.400;2023-07-29T07:41:34;2.75;;;1.98;;
79712;SDS011;69206;51.420;5.400;2023-07-29T07:44:00;3.10;;;1.60;;
79712;SDS011;69206;51.420;5.400;2023-07-29T07:46:25;2.92;;;1.60;;
79712;SDS011;69206;51.420;5.400;2023-07-29T07:48:50;4.57;;;1.58;;
79712;SDS011;69206;51.420;5.400;2023-07-29T07:51:16;2.40;;;1.55;;
79712;SDS011;69206;51.420;5.400;2023-07-29T07:53:41;3.22;;;1.52;;
79712;SDS011;69206;51.420;5.400;2023-07-29T07:56:07;3.70;;;1.83;;
79712;SDS011;69206;51.420;5.400;2023-07-29T07:58:32;4.65;;;1.45;;
79712;SDS011;69206;51.420;5.400;2023-07-29T08:01:05;3.97;;;1.50;;
79712;SDS011;69206;51.420;5.400;2023-07-29T08:03:32;1.75;;;1.25;;
79712;SDS011;69206;51.420;5.400;2023-07-29T08:05:58;2.22;;;1.35;;
79712;SDS011;69206;51.420;5.400;2023-07-29T08:08:24;4.70;;;1.83;;
79712;SDS011;69206;51.420;5.400;2023-07-29T08:10:51;2.65;;;1.70;;
79712;SDS011;69206;51.420;5.400;2023-07-29T08:13:21;4.10;;;1.70;;
79712;SDS011;69206;51.420;5.400;2023-07-29T08:15:47;4.30;;;1.67;;
79712;SDS011;69206;51.420;5.400;2023-07-29T08:18:13;1.45;;;1.23;;
79712;SDS011;69206;51.420;5.400;2023-07-29T08:20:38;2.22;;;1.55;;
79712;SDS011;69206;51.420;5.400;2023-07-29T08:23:04;1.92;;;1.40;;
79712;SDS011;69206;51.420;5.400;2023-07-29T08:25:29;2.80;;;1.30;;
79712;SDS011;69206;51.420;5.400;2023-07-29T08:27:54;4.00;;;1.70;;
79712;SDS011;69206;51.420;5.400;2023-07-29T08:30:20;2.45;;;1.40;;
79712;SDS011;69206;51.420;5.400;2023-07-29T08:32:45;2.75;;;1.83;;
79712;SDS011;69206;51.420;5.400;2023-07-29T08:35:11;3.03;;;1.75;;
79712;SDS011;69206;51.420;5.400;2023-07-29T08:37:36;2.30;;;1.50;;
79712;SDS011;69206;51.420;5.400;2023-07-29T08:40:01;1.92;;;1.33;;
79712;SDS011;69206;51.420;5.400;2023-07-29T08:42:29;2.80;;;1.40;;
79712;SDS011;69206;51.420;5.400;2023-07-29T08:44:56;1.83;;;1.30;;
79712;SDS011;69206;51.420;5.400;2023-07-29T08:47:31;2.47;;;1.40;;
79712;SDS011;69206;51.420;5.400;2023-07-29T08:49:56;4.20;;;1.70;;
79712;SDS011;69206;51.420;5.400;2023-07-29T08:52:24;3.17;;;1.50;;
79712;SDS011;69206;51.420;5.400;2023-07-29T08:54:50;1.83;;;1.05;;
79712;SDS011;69206;51.420;5.400;2023-07-29T08:57:17;3.72;;;1.63;;
79712;SDS011;69206;51.420;5.400;2023-07-29T08:59:45;4.13;;;1.50;;
79712;SDS011;69206;51.420;5.400;2023-07-29T09:02:11;1.38;;;1.20;;
79712;SDS011;69206;51.420;5.400;2023-07-29T09:04:36;1.88;;;1.27;;
79712;SDS011;69206;51.420;5.400;2023-07-29T09:07:02;2.38;;;1.40;;
79712;SDS011;69206;51.420;5.400;2023-07-29T09:09:28;3.00;;;1.55;;
79712;SDS011;69206;51.420;5.400;2023-07-29T09:11:53;1.25;;;1.15;;
79712;SDS011;69206;51.420;5.400;2023-07-29T09:14:19;4.25;;;1.55;;
79712;SDS011;69206;51.420;5.400;2023-07-29T09:16:44;3.05;;;1.58;;
79712;SDS011;69206;51.420;5.400;2023-07-29T09:19:11;2.22;;;1.20;;
79712;SDS011;69206;51.420;5.400;2023-07-29T09:21:38;1.58;;;1.45;;
79712;SDS011;69206;51.420;5.400;2023-07-29T09:24:04;4.25;;;1.70;;
79712;SDS011;69206;51.420;5.400;2023-07-29T09:26:30;2.00;;;1.02;;
79712;SDS011;69206;51.420;5.400;2023-07-29T09:28:56;2.70;;;1.15;;
79712;SDS011;69206;51.420;5.400;2023-07-29T09:31:23;1.85;;;1.65;;
79712;SDS011;69206;51.420;5.400;2023-07-29T09:33:50;2.45;;;1.30;;
79712;SDS011;69206;51.420;5.400;2023-07-29T09:36:22;2.70;;;1.35;;
79712;SDS011;69206;51.420;5.400;2023-07-29T09:38:47;1.70;;;1.10;;
79712;SDS011;69206;51.420;5.400;2023-07-29T09:41:15;2.15;;;1.30;;
79712;SDS011;69206;51.420;5.400;2023-07-29T09:43:40;1.65;;;1.23;;
79712;SDS011;69206;51.420;5.400;2023-07-29T09:46:06;2.22;;;1.10;;
79712;SDS011;69206;51.420;5.400;2023-07-29T09:48:34;1.58;;;1.33;;
79712;SDS011;69206;51.420;5.400;2023-07-29T09:51:09;3.28;;;1.20;;
79712;SDS011;69206;51.420;5.400;2023-07-29T09:53:44;1.95;;;1.38;;
79712;SDS011;69206;51.420;5.400;2023-07-29T09:56:11;3.42;;;1.38;;
79712;SDS011;69206;51.420;5.400;2023-07-29T09:58:37;1.90;;;1.50;;
79712;SDS011;69206;51.420;5.400;2023-07-29T10:01:06;1.77;;;1.13;;
79712;SDS011;69206;51.420;5.400;2023-07-29T10:03:33;5.47;;;1.50;;
79712;SDS011;69206;51.420;5.400;2023-07-29T10:06:00;2.50;;;1.58;;
79712;SDS011;69206;51.420;5.400;2023-07-29T10:08:26;2.08;;;1.63;;
79712;SDS011;69206;51.420;5.400;2023-07-29T10:10:54;3.25;;;1.27;;
79712;SDS011;69206;51.420;5.400;2023-07-29T10:13:20;3.50;;;1.38;;
79712;SDS011;69206;51.420;5.400;2023-07-29T10:15:45;2.72;;;1.27;;
79712;SDS011;69206;51.420;5.400;2023-07-29T10:18:11;1.63;;;1.50;;
79712;SDS011;69206;51.420;5.400;2023-07-29T10:20:37;2.65;;;1.10;;
79712;SDS011;69206;51.420;5.400;2023-07-29T10:23:03;7.97;;;1.60;;
79712;SDS011;69206;51.420;5.400;2023-07-29T10:25:37;4.80;;;1.30;;
79712;SDS011;69206;51.420;5.400;2023-07-29T10:28:05;2.35;;;1.35;;
79712;SDS011;69206;51.420;5.400;2023-07-29T10:30:32;2.20;;;1.58;;
79712;SDS011;69206;51.420;5.400;2023-07-29T10:32:58;2.20;;;1.52;;
79712;SDS011;69206;51.420;5.400;2023-07-29T10:35:26;3.17;;;1.50;;
79712;SDS011;69206;51.420;5.400;2023-07-29T10:37:52;2.20;;;1.40;;
79712;SDS011;69206;51.420;5.400;2023-07-29T10:40:18;2.08;;;1.25;;
79712;SDS011;69206;51.420;5.400;2023-07-29T10:43:00;4.30;;;1.58;;
79712;SDS011;69206;51.420;5.400;2023-07-29T10:45:27;1.73;;;1.30;;
79712;SDS011;69206;51.420;5.400;2023-07-29T10:48:04;3.17;;;1.50;;
79712;SDS011;69206;51.420;5.400;2023-07-29T10:50:50;2.08;;;1.48;;
79712;SDS011;69206;51.420;5.400;2023-07-29T10:53:29;2.55;;;1.20;;
79712;SDS011;69206;51.420;5.400;2023-07-29T10:55:56;1.58;;;1.38;;
79712;SDS011;69206;51.420;5.400;2023-07-29T10:58:21;1.58;;;1.45;;
79712;SDS011;69206;51.420;5.400;2023-07-29T11:00:47;1.50;;;1.40;;
79712;SDS011;69206;51.420;5.400;2023-07-29T11:03:14;3.97;;;1.70;;
79712;SDS011;69206;51.420;5.400;2023-07-29T11:05:46;1.92;;;1.45;;
79712;SDS011;69206;51.420;5.400;2023-07-29T11:08:30;3.00;;;1.65;;
79712;SDS011;69206;51.420;5.400;2023-07-29T11:11:07;2.97;;;1.60;;
79712;SDS011;69206;51.420;5.400;2023-07-29T11:13:34;1.90;;;1.55;;
79712;SDS011;69206;51.420;5.400;2023-07-29T11:16:01;4.60;;;2.05;;
79712;SDS011;69206;51.420;5.400;2023-07-29T11:18:31;2.30;;;1.70;;
79712;SDS011;69206;51.420;5.400;2023-07-29T11:20:58;7.78;;;1.67;;
79712;SDS011;69206;51.420;5.400;2023-07-29T11:23:28;4.40;;;1.75;;
79712;SDS011;69206;51.420;5.400;2023-07-29T11:26:00;3.65;;;1.70;;
79712;SDS011;69206;51.420;5.400;2023-07-29T11:28:26;9.40;;;1.80;;
79712;SDS011;69206;51.420;5.400;2023-07-29T11:30:53;1.70;;;1.58;;
79712;SDS011;69206;51.420;5.400;2023-07-29T11:33:20;3.22;;;1.80;;
79712;SDS011;69206;51.420;5.400;2023-07-29T11:35:54;5.85;;;1.80;;
79712;SDS011;69206;51.420;5.400;2023-07-29T11:38:20;2.00;;;1.80;;
79712;SDS011;69206;51.420;5.400;2023-07-29T11:40:59;3.90;;;1.42;;
79712;SDS011;69206;51.420;5.400;2023-07-29T11:43:26;2.10;;;1.52;;
79712;SDS011;69206;51.420;5.400;2023-07-29T11:45:52;1.70;;;1.60;;
79712;SDS011;69206;51.420;5.400;2023-07-29T11:48:17;3.20;;;1.33;;
79712;SDS011;69206;51.420;5.400;2023-07-29T11:50:43;2.33;;;1.88;;
79712;SDS011;69206;51.420;5.400;2023-07-29T11:53:08;2.80;;;1.80;;
79712;SDS011;69206;51.420;5.400;2023-07-29T11:55:35;4.43;;;1.50;;
79712;SDS011;69206;51.420;5.400;2023-07-29T11:58:01;3.55;;;1.50;;
79712;SDS011;69206;51.420;5.400;2023-07-29T12:00:28;2.58;;;1.70;;
79712;SDS011;69206;51.420;5.400;2023-07-29T12:02:53;5.38;;;2.67;;
79712;SDS011;69206;51.420;5.400;2023-07-29T12:05:21;20.65;;;4.00;;
79712;SDS011;69206;51.420;5.400;2023-07-29T12:07:47;6.25;;;2.65;;
79712;SDS011;69206;51.420;5.400;2023-07-29T12:10:15;7.82;;;2.60;;
79712;SDS011;69206;51.420;5.400;2023-07-29T12:12:44;5.03;;;2.40;;
79712;SDS011;69206;51.420;5.400;2023-07-29T12:15:11;4.28;;;2.92;;
79712;SDS011;69206;51.420;5.400;2023-07-29T12:17:40;3.50;;;2.63;;
79712;SDS011;69206;51.420;5.400;2023-07-29T12:20:07;5.13;;;2.72;;
79712;SDS011;69206;51.420;5.400;2023-07-29T12:22:36;5.15;;;2.72;;
79712;SDS011;69206;51.420;5.400;2023-07-29T12:25:01;9.43;;;2.83;;
79712;SDS011;69206;51.420;5.400;2023-07-29T12:27:30;5.88;;;3.40;;
79712;SDS011;69206;51.420;5.400;2023-07-29T12:29:55;5.70;;;3.42;;
79712;SDS011;69206;51.420;5.400;2023-07-29T12:32:24;17.33;;;4.22;;
79712;SDS011;69206;51.420;5.400;2023-07-29T12:34:52;0.47;;;0.47;;
79712;SDS011;69206;51.420;5.400;2023-07-29T12:37:18;1.10;;;0.65;;
79712;SDS011;69206;51.420;5.400;2023-07-29T12:39:43;0.10;;;0.10;;
79712;SDS011;69206;51.420;5.400;2023-07-29T12:42:09;0.10;;;0.10;;
79712;SDS011;69206;51.420;5.400;2023-07-29T12:44:35;0.30;;;0.30;;
79712;SDS011;69206;51.420;5.400;2023-07-29T12:47:04;0.25;;;0.25;;
79712;SDS011;69206;51.420;5.400;2023-07-29T12:49:31;0.25;;;0.25;;
79712;SDS011;69206;51.420;5.400;2023-07-29T12:52:00;0.10;;;0.10;;
79712;SDS011;69206;51.420;5.400;2023-07-29T12:54:25;0.43;;;0.43;;
79712;SDS011;69206;51.420;5.400;2023-07-29T12:56:51;0.45;;;0.45;;
79712;SDS011;69206;51.420;5.400;2023-07-29T12:59:16;1.40;;;0.88;;
79712;SDS011;69206;51.420;5.400;2023-07-29T13:01:42;0.10;;;0.10;;
79712;SDS011;69206;51.420;5.400;2023-07-29T13:04:07;0.10;;;0.10;;
79712;SDS011;69206;51.420;5.400;2023-07-29T13:06:32;0.30;;;0.30;;
79712;SDS011;69206;51.420;5.400;2023-07-29T13:08:58;0.10;;;0.10;;
79712;SDS011;69206;51.420;5.400;2023-07-29T13:11:23;0.20;;;0.20;;
79712;SDS011;69206;51.420;5.400;2023-07-29T13:13:49;0.30;;;0.22;;
79712;SDS011;69206;51.420;5.400;2023-07-29T13:16:14;0.05;;;0.05;;
79712;SDS011;69206;51.420;5.400;2023-07-29T13:18:40;0.40;;;0.40;;
79712;SDS011;69206;51.420;5.400;2023-07-29T13:21:06;0.10;;;0.10;;
79712;SDS011;69206;51.420;5.400;2023-07-29T13:23:31;0.45;;;0.35;;
79712;SDS011;69206;51.420;5.400;2023-07-29T13:25:57;0.52;;;0.40;;
79712;SDS011;69206;51.420;5.400;2023-07-29T13:28:22;0.10;;;0.10;;
79712;SDS011;69206;51.420;5.400;2023-07-29T13:30:48;0.08;;;0.08;;
79712;SDS011;69206;51.420;5.400;2023-07-29T13:33:13;0.30;;;0.30;;
79712;SDS011;69206;51.420;5.400;2023-07-29T13:35:39;0.40;;;0.40;;
79712;SDS011;69206;51.420;5.400;2023-07-29T13:38:04;0.20;;;0.20;;
79712;SDS011;69206;51.420;5.400;2023-07-29T13:40:29;1.98;;;0.47;;
79712;SDS011;69206;51.420;5.400;2023-07-29T13:42:55;0.15;;;0.13;;
79712;SDS011;69206;51.420;5.400;2023-07-29T13:45:21;0.17;;;0.17;;
79712;SDS011;69206;51.420;5.400;2023-07-29T13:47:46;0.43;;;0.30;;
79712;SDS011;69206;51.420;5.400;2023-07-29T13:50:12;0.28;;;0.28;;
79712;SDS011;69206;51.420;5.400;2023-07-29T13:52:38;0.32;;;0.32;;
79712;SDS011;69206;51.420;5.400;2023-07-29T13:55:04;0.35;;;0.35;;
79712;SDS011;69206;51.420;5.400;2023-07-29T13:57:30;0.10;;;0.10;;
79712;SDS011;69206;51.420;5.400;2023-07-29T13:59:56;0.77;;;0.25;;
79712;SDS011;69206;51.420;5.400;2023-07-29T14:02:21;0.40;;;0.30;;
79712;SDS011;69206;51.420;5.400;2023-07-29T14:04:47;0.10;;;0.10;;
79712;SDS011;69206;51.420;5.400;2023-07-29T14:07:12;0.00;;;0.00;;
79712;SDS011;69206;51.420;5.400;2023-07-29T14:09:37;0.20;;;0.20;;
79712;SDS011;69206;51.420;5.400;2023-07-29T14:12:03;0.45;;;0.15;;
79712;SDS011;69206;51.420;5.400;2023-07-29T14:14:29;0.15;;;0.15;;
79712;SDS011;69206;51.420;5.400;2023-07-29T14:16:55;0.20;;;0.20;;
79712;SDS011;69206;51.420;5.400;2023-07-29T14:19:20;0.35;;;0.35;;
79712;SDS011;69206;51.420;5.400;2023-07-29T14:21:46;0.35;;;0.32;;
79712;SDS011;69206;51.420;5.400;2023-07-29T14:24:11;0.22;;;0.22;;
79712;SDS011;69206;51.420;5.400;2023-07-29T14:26:36;0.22;;;0.22;;
79712;SDS011;69206;51.420;5.400;2023-07-29T14:29:02;0.00;;;0.00;;
79712;SDS011;69206;51.420;5.400;2023-07-29T14:31:27;0.20;;;0.20;;
79712;SDS011;69206;51.420;5.400;2023-07-29T14:33:52;0.22;;;0.17;;
79712;SDS011;69206;51.420;5.400;2023-07-29T14:36:18;0.35;;;0.35;;
79712;SDS011;69206;51.420;5.400;2023-07-29T14:38:43;0.10;;;0.10;;
79712;SDS011;69206;51.420;5.400;2023-07-29T14:41:08;0.45;;;0.45;;
79712;SDS011;69206;51.420;5.400;2023-07-29T14:43:34;0.20;;;0.20;;
79712;SDS011;69206;51.420;5.400;2023-07-29T14:46:00;0.30;;;0.30;;
79712;SDS011;69206;51.420;5.400;2023-07-29T14:48:25;0.10;;;0.10;;